Time;durP1;ratioP1;P1;durP2;ratioP2;P2;SDS_P1;SDS_P2;PMS_P1;PMS_P2;Temp;Humidity;BMP_temperature;BMP_pressure;BME280_temperature;BME280_humidity;BME280_pressure;Samples;Min_cycle;Max_cycle;Signal;HPM_P1;HPM_P2
2022/10/12 00:01:09;;;;;;;10.55;1.48;;;;;;;11.79;91.65;101907.66;4937583;29;20041;-70
2022/10/12 00:03:35;;;;;;;6.90;1.23;;;;;;;11.79;92.14;101909.47;4954764;29;20049;-70
2022/10/12 00:06:04;;;;;;;12.18;1.33;;;;;;;11.70;92.07;101897.94;4937519;29;20034;-70
2022/10/12 00:08:31;;;;;;;10.20;1.30;;;;;;;11.64;91.67;101888.69;4937225;29;20516;-70
2022/10/12 00:10:57;;;;;;;5.50;0.88;;;;;;;11.74;91.83;101905.47;4954767;29;20046;-70
2022/10/12 00:13:22;;;;;;;6.15;1.00;;;;;;;11.71;91.47;101894.22;4937047;29;20024;-70
2022/10/12 00:15:48;;;;;;;6.05;1.00;;;;;;;11.75;90.20;101909.88;4937444;29;20031;-70
2022/10/12 00:18:14;;;;;;;5.70;0.90;;;;;;;11.66;89.55;101888.53;4954587;28;20089;-70
2022/10/12 00:20:39;;;;;;;7.65;1.00;;;;;;;11.81;89.71;101912.84;4936831;29;20114;-70
2022/10/12 00:23:04;;;;;;;8.25;1.00;;;;;;;11.86;89.33;101915.91;4954397;29;20035;-70
2022/10/12 00:25:30;;;;;;;10.48;1.40;;;;;;;11.76;88.88;101900.75;4926985;29;20051;-70
2022/10/12 00:27:55;;;;;;;9.25;1.23;;;;;;;11.68;88.49;101881.09;4918055;29;20043;-70
2022/10/12 00:30:21;;;;;;;8.95;1.30;;;;;;;11.90;88.95;101923.44;4935509;29;20035;-70
2022/10/12 00:32:46;;;;;;;5.57;1.20;;;;;;;11.93;88.77;101925.78;4919826;29;20550;-70
2022/10/12 00:35:11;;;;;;;9.05;1.00;;;;;;;11.87;88.95;101918.41;4918346;29;20452;-70
2022/10/12 00:37:37;;;;;;;10.80;1.13;;;;;;;11.91;89.96;101925.09;4934945;29;20067;-70
2022/10/12 00:40:02;;;;;;;8.95;1.60;;;;;;;11.93;89.81;101917.69;4917849;29;20387;-70
2022/10/12 00:42:28;;;;;;;5.93;1.13;;;;;;;11.89;89.48;101912.84;4917622;29;20035;-70
2022/10/12 00:44:56;;;;;;;6.75;1.33;;;;;;;11.97;89.47;101927.06;4917725;29;20099;-70
2022/10/12 00:47:31;;;;;;;4.78;1.00;;;;;;;11.93;89.16;101928.47;4917754;29;20562;-70
2022/10/12 00:50:17;;;;;;;7.68;0.93;;;;;;;11.89;89.20;101927.16;4934676;29;20086;-70
2022/10/12 00:52:51;;;;;;;9.02;1.65;;;;;;;11.87;89.21;101934.56;4935072;29;20031;-70
2022/10/12 00:55:19;;;;;;;5.93;1.02;;;;;;;11.69;89.27;101899.81;4917707;29;20086;-70
2022/10/12 00:57:46;;;;;;;6.95;0.90;;;;;;;11.82;89.11;101926.16;4917391;29;20043;-70
2022/10/12 01:00:15;;;;;;;5.93;0.98;;;;;;;11.78;89.09;101914.03;4934635;29;20039;-70
2022/10/12 01:02:42;;;;;;;6.63;1.20;;;;;;;11.84;89.22;101917.88;4900272;29;20056;-70
2022/10/12 01:05:10;;;;;;;8.50;1.27;;;;;;;11.82;89.70;101918.09;4916938;29;20106;-70
2022/10/12 01:07:36;;;;;;;8.02;1.30;;;;;;;11.81;90.17;101931.72;4934385;29;20472;-71
2022/10/12 01:10:07;;;;;;;6.85;1.50;;;;;;;11.81;89.95;101929.03;4934406;29;20108;-70
2022/10/12 01:12:33;;;;;;;9.10;1.23;;;;;;;11.83;90.49;101943.19;4934388;29;20032;-70
2022/10/12 01:15:02;;;;;;;7.93;1.05;;;;;;;11.81;90.85;101940.66;4934431;29;20035;-70
2022/10/12 01:17:27;;;;;;;7.70;1.10;;;;;;;11.83;91.86;101953.97;4917018;29;20027;-70
2022/10/12 01:20:02;;;;;;;8.00;1.25;;;;;;;11.81;92.09;101945.22;4934364;29;20035;-70
2022/10/12 01:22:36;;;;;;;7.57;1.08;;;;;;;11.82;91.50;101949.56;4917097;29;20476;-70
2022/10/12 01:25:08;;;;;;;10.52;1.20;;;;;;;11.69;91.38;101932.16;4940353;29;20054;-70
2022/10/12 01:27:49;;;;;;;10.52;1.50;;;;;;;11.79;91.21;101947.25;4935834;29;20035;-70
2022/10/12 01:30:25;;;;;;;6.90;1.08;;;;;;;11.81;91.08;101942.50;4936146;29;20035;-70
2022/10/12 01:32:50;;;;;;;9.15;1.00;;;;;;;11.80;91.53;101948.94;4953255;28;20098;-70
2022/10/12 01:35:28;;;;;;;11.63;1.23;;;;;;;11.78;91.28;101946.41;4953181;29;20586;-70
2022/10/12 01:37:53;;;;;;;9.73;1.15;;;;;;;11.75;91.43;101955.72;4953266;29;20135;-70
2022/10/12 01:40:41;;;;;;;6.97;1.30;;;;;;;11.76;91.05;101949.28;4953014;28;20027;-70
2022/10/12 01:43:07;;;;;;;8.05;1.20;;;;;;;11.80;90.99;101946.25;4922050;29;20046;-70
2022/10/12 01:45:32;;;;;;;13.20;1.10;;;;;;;11.79;91.21;101948.09;4916844;29;20422;-70
2022/10/12 01:47:57;;;;;;;11.77;1.40;;;;;;;11.83;91.37;101957.50;4935719;29;20035;-70
2022/10/12 01:50:33;;;;;;;8.90;1.33;;;;;;;11.84;91.23;101955.63;4936132;29;20031;-70
2022/10/12 01:53:04;;;;;;;11.02;1.58;;;;;;;11.83;91.40;101948.59;4937854;29;20110;-70
2022/10/12 01:55:45;;;;;;;10.77;1.48;;;;;;;11.84;91.24;101953.81;4953083;28;20410;-70
2022/10/12 01:58:40;;;;;;;9.45;1.45;;;;;;;11.80;90.52;101955.16;4952906;29;20030;-70
2022/10/12 02:01:10;;;;;;;8.43;1.10;;;;;;;11.72;90.14;101947.97;4911650;29;20043;-70
2022/10/12 02:03:56;;;;;;;7.20;1.70;;;;;;;11.77;89.73;101948.25;4952702;29;20074;-70
2022/10/12 02:06:32;;;;;;;5.70;1.33;;;;;;;11.76;89.19;101938.50;4952757;29;20039;-70
2022/10/12 02:09:25;;;;;;;8.18;1.60;;;;;;;11.84;89.50;101958.34;4937592;29;20062;-69
2022/10/12 02:11:53;;;;;;;8.27;1.10;;;;;;;11.84;88.82;101950.25;4952764;29;20430;-70
2022/10/12 02:14:24;;;;;;;6.95;1.08;;;;;;;11.88;88.22;101960.53;4952761;29;20475;-69
2022/10/12 02:16:57;;;;;;;8.85;1.23;;;;;;;11.83;87.90;101948.59;4953053;28;20483;-70
2022/10/12 02:19:29;;;;;;;10.02;1.38;;;;;;;11.86;88.36;101946.41;4939455;29;20031;-70
2022/10/12 02:22:00;;;;;;;7.10;1.30;;;;;;;11.81;88.48;101932.56;4938836;29;20069;-70
2022/10/12 02:24:29;;;;;;;9.93;1.30;;;;;;;11.95;89.23;101957.94;4956336;28;20066;-69
2022/10/12 02:26:56;;;;;;;9.25;1.20;;;;;;;11.88;89.22;101941.63;4923427;29;20058;-70
2022/10/12 02:29:35;;;;;;;7.45;1.35;;;;;;;11.99;89.37;101959.28;4939149;29;20031;-70
2022/10/12 02:32:27;;;;;;;7.75;1.13;;;;;;;11.99;89.15;101961.97;4956684;28;20042;-70
2022/10/12 02:34:58;;;;;;;9.65;1.52;;;;;;;11.94;89.23;101945.47;4920005;29;20039;-69
2022/10/12 02:37:23;;;;;;;12.35;1.60;;;;;;;12.02;88.94;101964.31;4956289;28;20493;-69
2022/10/12 02:39:53;;;;;;;14.02;1.50;;;;;;;12.06;88.76;101954.00;4956315;29;20045;-70
2022/10/12 02:42:28;;;;;;;10.20;1.33;;;;;;;12.08;89.32;101965.44;4956181;29;20027;-69
2022/10/12 02:44:54;;;;;;;11.10;1.52;;;;;;;12.09;89.11;101962.56;4956073;29;20102;-69
2022/10/12 02:47:23;;;;;;;9.50;1.45;;;;;;;12.10;89.00;101964.25;4938954;29;20043;-70
2022/10/12 02:49:50;;;;;;;9.18;1.30;;;;;;;12.11;88.94;101968.63;4957340;29;20090;-70
2022/10/12 02:52:16;;;;;;;9.63;1.20;;;;;;;11.96;89.11;101938.06;4956413;29;20039;-69
2022/10/12 02:54:41;;;;;;;9.57;1.33;;;;;;;12.14;89.54;101970.94;4956081;29;20490;-70
2022/10/12 02:57:07;;;;;;;12.57;1.77;;;;;;;11.89;89.93;101931.72;4955998;28;20054;-71
2022/10/12 02:59:32;;;;;;;11.75;1.67;;;;;;;12.11;90.69;101967.78;4955903;29;20035;-70
2022/10/12 03:01:58;;;;;;;12.90;1.60;;;;;;;12.11;91.49;101963.22;4922849;29;20039;-70
2022/10/12 03:04:23;;;;;;;11.60;1.90;;;;;;;12.15;91.79;101969.09;4919566;29;20032;-70
2022/10/12 03:06:48;;;;;;;12.70;2.20;;;;;;;12.04;92.36;101946.06;4954800;29;20039;-70
2022/10/12 03:09:14;;;;;;;15.98;2.10;;;;;;;12.18;92.92;101974.97;4922749;29;20043;-70
2022/10/12 03:11:43;;;;;;;16.15;1.75;;;;;;;12.14;93.51;101959.31;4938515;29;20117;-70
2022/10/12 03:14:10;;;;;;;18.95;2.15;;;;;;;12.07;94.50;101936.78;4923037;29;20037;-70
2022/10/12 03:16:36;;;;;;;17.65;2.25;;;;;;;12.25;95.12;101969.69;4938230;29;20031;-70
2022/10/12 03:19:01;;;;;;;14.30;2.20;;;;;;;12.12;95.72;101951.44;4955579;29;20375;-70
2022/10/12 03:21:26;;;;;;;16.17;2.05;;;;;;;12.25;96.87;101972.41;4938474;29;20031;-69
2022/10/12 03:23:52;;;;;;;20.10;2.40;;;;;;;12.25;97.16;101971.53;4938367;29;20037;-70
2022/10/12 03:26:17;;;;;;;18.55;2.03;;;;;;;12.18;97.92;101968.72;4955283;29;20085;-70
2022/10/12 03:28:43;;;;;;;13.18;2.30;;;;;;;12.22;98.22;101970.91;4937090;29;20035;-70
2022/10/12 03:31:08;;;;;;;13.38;2.22;;;;;;;12.20;98.88;101966.69;4955462;29;20266;-70
2022/10/12 03:33:33;;;;;;;15.93;2.30;;;;;;;12.07;99.50;101945.72;4922123;29;20478;-70
2022/10/12 03:35:59;;;;;;;14.57;2.10;;;;;;;12.22;100.00;101970.91;4938105;29;20043;-70
2022/10/12 03:38:24;;;;;;;22.95;3.95;;;;;;;12.23;100.00;101975.28;4938039;29;20450;-71
2022/10/12 03:40:50;;;;;;;15.80;2.83;;;;;;;12.23;100.00;101971.72;4937770;29;20050;-70
2022/10/12 03:43:16;;;;;;;20.75;2.35;;;;;;;12.15;100.00;101958.28;4937705;28;20419;-70
2022/10/12 03:45:41;;;;;;;20.58;3.53;;;;;;;12.23;100.00;101975.28;4937898;29;20050;-70
2022/10/12 03:48:07;;;;;;;20.55;2.10;;;;;;;12.25;100.00;101969.69;4955029;29;20069;-70
2022/10/12 03:50:34;;;;;;;16.27;2.20;;;;;;;12.26;100.00;101975.94;4954959;29;20490;-70
2022/10/12 03:53:00;;;;;;;14.05;2.20;;;;;;;12.27;100.00;101975.75;4937728;29;20038;-70
2022/10/12 03:55:25;;;;;;;24.17;3.38;;;;;;;12.28;100.00;101968.47;4937762;29;20066;-70
2022/10/12 03:57:51;;;;;;;16.73;2.08;;;;;;;12.27;100.00;101981.13;4922008;29;20051;-70
2022/10/12 04:00:17;;;;;;;19.25;2.70;;;;;;;12.13;100.00;101963.88;4920175;29;20098;-69
2022/10/12 04:02:45;;;;;;;14.65;1.90;;;;;;;12.27;100.00;101977.59;4928474;29;20486;-70
2022/10/12 04:05:10;;;;;;;11.60;1.67;;;;;;;12.19;100.00;101968.56;4929019;29;20070;-70
2022/10/12 04:07:36;;;;;;;11.25;2.63;;;;;;;12.11;100.00;101965.91;4948656;29;20043;-69
2022/10/12 04:10:02;;;;;;;15.02;2.00;;;;;;;12.25;100.00;101979.63;4900719;29;20042;-69
2022/10/12 04:12:27;;;;;;;15.20;1.85;;;;;;;12.24;100.00;101981.50;4949399;29;20046;-70
2022/10/12 04:14:53;;;;;;;12.98;1.85;;;;;;;12.20;100.00;101975.63;4935656;29;20027;-69
2022/10/12 04:17:18;;;;;;;11.93;1.67;;;;;;;12.21;100.00;101977.28;4937035;29;20180;-69
2022/10/12 04:19:44;;;;;;;12.75;1.70;;;;;;;12.23;100.00;101974.44;4937207;29;20463;-70
2022/10/12 04:22:09;;;;;;;11.20;1.67;;;;;;;12.04;100.00;101946.06;4954511;28;20031;-69
2022/10/12 04:24:35;;;;;;;13.02;2.33;;;;;;;12.16;100.00;101965.38;4936865;29;20438;-70
2022/10/12 04:27:02;;;;;;;12.60;1.67;;;;;;;12.23;100.00;101975.28;4921462;29;20506;-69
2022/10/12 04:29:28;;;;;;;10.27;1.88;;;;;;;12.17;100.00;101962.50;4954149;29;20039;-70
2022/10/12 04:31:53;;;;;;;12.18;1.60;;;;;;;12.21;100.00;101968.38;4954555;28;20078;-70
2022/10/12 04:34:19;;;;;;;8.07;1.30;;;;;;;12.17;100.00;101967.91;4954117;29;20094;-70
2022/10/12 04:36:44;;;;;;;8.88;1.10;;;;;;;12.04;100.00;101943.38;4937045;29;20046;-69
2022/10/12 04:39:09;;;;;;;5.18;1.00;;;;;;;12.17;100.00;101976.00;4920648;28;20039;-69
2022/10/12 04:41:35;;;;;;;11.02;1.23;;;;;;;12.11;100.00;101968.63;4936440;29;20047;-69
2022/10/12 04:44:01;;;;;;;8.10;1.13;;;;;;;12.09;100.00;101967.97;4936999;29;20557;-69
2022/10/12 04:46:26;;;;;;;8.18;0.98;;;;;;;12.07;100.00;101967.31;4954371;29;20069;-70
2022/10/12 04:48:51;;;;;;;7.95;1.10;;;;;;;11.97;100.00;101956.75;4936812;29;20159;-70
2022/10/12 04:51:17;;;;;;;8.73;1.00;;;;;;;12.12;100.00;101986.50;4954041;29;20035;-70
2022/10/12 04:53:42;;;;;;;8.85;1.13;;;;;;;11.95;100.00;101957.94;4954017;28;20023;-70
2022/10/12 04:56:08;;;;;;;11.10;1.23;;;;;;;12.11;100.00;101979.41;4936131;29;20488;-70
2022/10/12 04:58:33;;;;;;;6.43;1.15;;;;;;;12.03;100.00;101960.59;4936230;29;20035;-70
2022/10/12 05:00:59;;;;;;;9.80;1.23;;;;;;;12.10;100.00;101977.72;4953949;28;20035;-70
2022/10/12 05:03:24;;;;;;;6.90;0.88;;;;;;;12.13;100.00;101988.16;4936694;29;20042;-69
2022/10/12 05:05:50;;;;;;;6.88;1.00;;;;;;;12.12;100.00;101980.25;4953717;29;20038;-70
2022/10/12 05:08:16;;;;;;;9.48;1.10;;;;;;;11.70;100.00;101908.72;4936247;29;20035;-70
2022/10/12 05:10:41;;;;;;;7.43;1.02;;;;;;;12.12;100.00;101983.81;4936401;29;20103;-69
2022/10/12 05:13:07;;;;;;;6.63;1.00;;;;;;;12.14;100.00;101980.91;4936387;29;20585;-70
2022/10/12 05:15:32;;;;;;;7.65;0.98;;;;;;;12.12;100.00;101981.09;4920085;29;20035;-69
2022/10/12 05:17:58;;;;;;;8.35;0.98;;;;;;;12.10;100.00;101983.13;4953329;28;20529;-69
2022/10/12 05:20:31;;;;;;;5.43;0.88;;;;;;;12.13;100.00;101981.94;4952968;29;20042;-69
2022/10/12 05:22:57;;;;;;;9.23;1.20;;;;;;;12.11;100.00;101990.19;4933852;29;20082;-69
2022/10/12 05:25:23;;;;;;;6.95;1.17;;;;;;;11.97;100.00;101962.16;4936243;29;20051;-68
2022/10/12 05:27:48;;;;;;;11.60;1.10;;;;;;;12.11;100.00;101992.91;4935897;29;20411;-69
2022/10/12 05:30:14;;;;;;;8.52;0.95;;;;;;;12.13;100.00;101985.47;4935362;29;20517;-70
2022/10/12 05:32:40;;;;;;;9.68;1.33;;;;;;;11.99;100.00;101965.50;4950585;29;20039;-69
2022/10/12 05:35:06;;;;;;;9.75;1.10;;;;;;;12.10;100.00;101977.72;4936054;29;20031;-70
2022/10/12 05:37:32;;;;;;;6.75;1.00;;;;;;;12.20;100.00;101991.81;4954855;29;20043;-71
2022/10/12 05:39:57;;;;;;;8.85;1.20;;;;;;;12.14;100.00;101978.22;4954452;29;20045;-70
2022/10/12 05:42:23;;;;;;;7.18;1.00;;;;;;;12.11;100.00;101963.22;4953131;29;20027;-70
2022/10/12 05:44:48;;;;;;;6.88;1.40;;;;;;;12.17;100.00;101981.38;4952865;29;20031;-70
2022/10/12 05:47:14;;;;;;;5.45;0.85;;;;;;;11.99;100.00;101945.78;4916888;29;20119;-70
2022/10/12 05:49:39;;;;;;;15.25;1.52;;;;;;;12.18;100.00;101977.66;4920032;29;20039;-70
2022/10/12 05:52:04;;;;;;;8.52;1.00;;;;;;;12.17;100.00;101978.69;4935403;29;20048;-70
2022/10/12 05:54:30;;;;;;;7.07;1.33;;;;;;;12.15;100.00;101979.88;4935882;29;20038;-70
2022/10/12 05:56:56;;;;;;;9.40;1.70;;;;;;;12.06;100.00;101967.50;4952981;29;20080;-70
2022/10/12 05:59:21;;;;;;;8.55;1.20;;;;;;;11.96;100.00;101956.94;4953151;29;20031;-70
2022/10/12 06:01:48;;;;;;;6.55;1.25;;;;;;;12.10;100.00;101975.03;4953059;29;20105;-70
2022/10/12 06:04:14;;;;;;;12.70;1.65;;;;;;;12.08;100.00;101978.94;4952953;29;20118;-70
2022/10/12 06:06:39;;;;;;;10.60;1.35;;;;;;;12.07;100.00;101988.06;4952894;29;20118;-70
2022/10/12 06:09:04;;;;;;;3.70;0.68;;;;;;;12.05;100.00;101988.22;4935712;29;20134;-70
2022/10/12 06:11:30;;;;;;;7.57;1.27;;;;;;;12.04;100.00;101994.63;4952790;28;20537;-70
2022/10/12 06:13:55;;;;;;;9.00;1.10;;;;;;;12.03;100.00;101992.97;4953004;29;20047;-71
2022/10/12 06:16:21;;;;;;;7.22;1.00;;;;;;;11.87;100.00;101972.34;4953033;29;20487;-70
2022/10/12 06:18:47;;;;;;;9.10;1.23;;;;;;;11.97;100.00;101981.03;4952688;29;20051;-70
2022/10/12 06:21:12;;;;;;;6.68;1.02;;;;;;;12.05;100.00;101990.91;4935621;29;20490;-70
2022/10/12 06:23:38;;;;;;;9.85;1.05;;;;;;;12.09;100.00;101991.41;4935499;29;20118;-70
2022/10/12 06:26:03;;;;;;;5.93;1.00;;;;;;;12.11;100.00;101990.19;4935393;29;20452;-70
2022/10/12 06:28:28;;;;;;;9.48;1.55;;;;;;;12.11;100.00;101987.50;4952373;28;20046;-70
2022/10/12 06:30:56;;;;;;;8.18;1.30;;;;;;;12.14;100.00;101995.22;4952614;29;20046;-70
2022/10/12 06:33:22;;;;;;;5.72;1.35;;;;;;;12.17;100.00;101994.88;4952723;29;20037;-70
2022/10/12 06:35:47;;;;;;;7.53;1.25;;;;;;;12.20;100.00;101988.28;4935583;29;20064;-70
2022/10/12 06:38:13;;;;;;;7.88;1.20;;;;;;;12.22;100.00;101992.50;4935733;29;20062;-70
2022/10/12 06:40:39;;;;;;;9.23;1.17;;;;;;;12.26;100.00;101997.53;4935195;29;20449;-70
2022/10/12 06:43:04;;;;;;;9.27;1.38;;;;;;;12.28;100.00;101992.78;4935398;29;20039;-70
2022/10/12 06:45:29;;;;;;;7.78;1.23;;;;;;;12.27;100.00;101988.41;4935383;29;20043;-70
2022/10/12 06:47:56;;;;;;;10.07;1.40;;;;;;;12.33;100.00;101990.38;4935560;29;20122;-70
2022/10/12 06:50:22;;;;;;;12.10;1.83;;;;;;;12.17;100.00;101956.25;4952518;29;20031;-70
2022/10/12 06:52:47;;;;;;;10.32;1.23;;;;;;;12.38;100.00;101991.53;4951893;29;20043;-70
2022/10/12 06:55:12;;;;;;;10.15;1.27;;;;;;;12.39;100.00;101995.06;4952689;28;20027;-70
2022/10/12 06:57:38;;;;;;;13.68;1.85;;;;;;;12.40;100.00;101989.47;4952437;29;20488;-70
2022/10/12 07:00:05;;;;;;;6.80;1.20;;;;;;;12.37;100.00;101991.69;4935166;29;20043;-70
2022/10/12 07:02:31;;;;;;;7.90;1.50;;;;;;;12.44;100.00;101995.31;4951776;28;20516;-71
2022/10/12 07:04:57;;;;;;;11.43;1.55;;;;;;;12.44;100.00;101993.47;4955802;29;20035;-70
2022/10/12 07:07:22;;;;;;;9.93;1.40;;;;;;;12.43;100.00;102005.28;4938259;29;20126;-70
2022/10/12 07:09:47;;;;;;;10.45;1.17;;;;;;;12.37;100.00;102000.63;4937847;28;20043;-69
2022/10/12 07:12:13;;;;;;;6.50;1.02;;;;;;;12.29;100.00;101997.16;4932334;29;20031;-69
2022/10/12 07:14:38;;;;;;;7.43;1.10;;;;;;;12.18;100.00;101983.06;4955484;29;20038;-69
2022/10/12 07:17:04;;;;;;;8.40;1.35;;;;;;;12.26;100.00;101990.25;4922473;29;20498;-70
2022/10/12 07:19:29;;;;;;;9.38;0.93;;;;;;;12.19;100.00;101976.66;4955861;29;20035;-70
2022/10/12 07:21:55;;;;;;;6.05;1.00;;;;;;;12.27;100.00;101985.69;4938584;29;20126;-70
2022/10/12 07:24:20;;;;;;;5.65;0.63;;;;;;;12.28;100.00;101992.78;4919222;29;20067;-70
2022/10/12 07:26:49;;;;;;;17.60;10.05;;;;;;;12.29;100.00;101981.81;4936285;29;20043;-70
2022/10/12 07:29:14;;;;;;;30.85;20.58;;;;;;;12.09;100.00;101946.38;4955569;29;20414;-71
2022/10/12 07:31:41;;;;;;;19.55;12.27;;;;;;;12.26;100.00;101968.69;4955682;29;20110;-70
2022/10/12 07:34:06;;;;;;;12.27;5.88;;;;;;;12.38;100.00;101983.41;4922497;29;20095;-70
2022/10/12 07:36:32;;;;;;;6.45;2.42;;;;;;;12.43;100.00;101985.56;4955381;29;20115;-70
2022/10/12 07:38:58;;;;;;;5.95;1.98;;;;;;;12.49;100.00;101998.34;4937884;28;20051;-70
2022/10/12 07:41:24;;;;;;;5.00;0.95;;;;;;;12.51;100.00;101990.88;4938215;29;20042;-70
2022/10/12 07:43:55;;;;;;;4.30;0.98;;;;;;;12.72;100.00;102003.69;4955436;29;20086;-70
2022/10/12 07:46:20;;;;;;;3.65;1.20;;;;;;;12.81;100.00;102004.44;4955474;29;20042;-70
2022/10/12 07:48:46;;;;;;;3.90;1.20;;;;;;;12.85;100.00;102009.28;4937932;29;20414;-70
2022/10/12 07:51:11;;;;;;;5.70;2.03;;;;;;;12.88;100.00;102010.75;4954474;29;20035;-70
2022/10/12 07:53:37;;;;;;;2.47;0.85;;;;;;;12.83;100.00;102008.63;4938014;29;20035;-71
2022/10/12 07:56:05;;;;;;;4.68;0.90;;;;;;;12.85;100.00;102003.06;4938379;29;20111;-70
2022/10/12 07:58:31;;;;;;;3.72;1.13;;;;;;;12.87;100.00;102014.50;4957771;29;20038;-71
2022/10/12 08:01:05;;;;;;;4.50;1.25;;;;;;;12.84;100.00;102002.19;4937528;29;20066;-70
2022/10/12 08:03:30;;;;;;;5.80;1.30;;;;;;;12.97;100.00;102012.38;4936957;29;20028;-71
2022/10/12 08:05:55;;;;;;;11.20;1.17;;;;;;;12.97;100.00;101996.16;4937475;29;20406;-70
2022/10/12 08:08:21;;;;;;;8.15;1.40;;;;;;;13.14;100.00;102022.00;4954932;28;20031;-70
2022/10/12 08:10:46;;;;;;;10.13;1.55;;;;;;;13.19;100.00;102026.00;4937312;29;20437;-70
2022/10/12 08:13:11;;;;;;;10.70;2.13;;;;;;;13.19;100.00;102018.72;4937543;29;20054;-70
2022/10/12 08:15:37;;;;;;;8.50;1.67;;;;;;;13.18;100.00;102017.06;4934209;29;20563;-70
2022/10/12 08:18:02;;;;;;;8.27;1.80;;;;;;;13.21;100.00;102021.22;4928924;29;20047;-70
2022/10/12 08:20:28;;;;;;;11.05;1.85;;;;;;;13.15;100.00;102025.53;4929619;29;20119;-70
2022/10/12 08:22:53;;;;;;;9.43;2.10;;;;;;;13.07;100.00;102034.53;4929221;29;20028;-70
2022/10/12 08:25:19;;;;;;;12.52;2.22;;;;;;;13.05;100.00;102036.59;4913705;29;20128;-70
2022/10/12 08:27:44;;;;;;;9.38;1.63;;;;;;;12.96;100.00;102034.19;4945998;29;20039;-70
2022/10/12 08:30:10;;;;;;;13.35;1.90;;;;;;;13.03;100.00;102041.34;4945170;29;20324;-70
2022/10/12 08:32:36;;;;;;;10.20;1.60;;;;;;;13.00;100.00;102039.00;4928466;29;20070;-71
2022/10/12 08:35:01;;;;;;;11.43;1.83;;;;;;;13.02;100.00;102039.69;4946833;28;20089;-70
2022/10/12 08:37:28;;;;;;;13.38;1.73;;;;;;;13.05;100.00;102033.06;4927031;29;20047;-70
2022/10/12 08:39:54;;;;;;;10.80;1.70;;;;;;;13.06;100.00;102040.16;4946785;29;20031;-70
2022/10/12 08:43:03;;;;;;;12.18;1.85;;;;;;;13.12;100.00;102047.50;4945100;29;20034;-70
2022/10/12 08:45:31;;;;;;;8.88;1.73;;;;;;;13.25;100.00;102041.50;4864017;29;20102;-70
2022/10/12 08:48:07;;;;;;;14.32;2.03;;;;;;;13.32;100.00;102039.72;4925782;29;20414;-70
2022/10/12 08:50:36;;;;;;;13.98;2.42;;;;;;;13.32;100.00;102031.63;4954060;29;20034;-70
2022/10/12 08:53:25;;;;;;;13.75;2.22;;;;;;;13.32;100.00;102042.44;4953917;29;20434;-70
2022/10/12 08:55:51;;;;;;;13.50;1.92;;;;;;;13.23;100.00;102033.53;4953925;29;20031;-70
2022/10/12 08:58:19;;;;;;;13.63;1.80;;;;;;;13.24;100.00;102039.75;4953720;28;20486;-70
2022/10/12 09:00:49;;;;;;;13.18;1.80;;;;;;;13.22;100.00;102039.13;4953600;29;20182;-69
2022/10/12 09:03:26;;;;;;;14.70;2.00;;;;;;;13.23;100.00;102038.09;4953874;29;20038;-70
2022/10/12 09:06:15;;;;;;;19.17;2.38;;;;;;;13.29;100.00;102032.81;4936877;29;20042;-70
2022/10/12 09:08:56;;;;;;;12.77;1.55;;;;;;;13.05;100.00;101998.78;4936396;28;20041;-70
2022/10/12 09:12:08;;;;;;;9.63;1.85;;;;;;;13.29;100.00;102032.81;4953597;29;20027;-70
2022/10/12 09:15:14;;;;;;;12.20;1.90;;;;;;;13.34;100.00;102041.22;4871886;29;20032;-69
2022/10/12 09:17:45;;;;;;;13.40;1.70;;;;;;;13.33;100.00;102026.00;4865035;29;20041;-70
2022/10/12 09:20:19;;;;;;;11.38;1.65;;;;;;;13.45;100.00;102048.00;4929893;29;20487;-68
2022/10/12 09:22:52;;;;;;;10.48;1.52;;;;;;;13.46;100.00;102043.44;4944494;29;20038;-70
2022/10/12 09:25:23;;;;;;;47.22;19.83;;;;;;;13.35;100.00;102023.97;4944256;29;20494;-70
2022/10/12 09:27:50;;;;;;;80.57;35.83;;;;;;;13.54;100.00;102046.88;4943067;29;20051;-69
2022/10/12 09:30:18;;;;;;;93.82;34.97;;;;;;;13.54;100.00;102049.59;4947659;29;20491;-72
2022/10/12 09:33:17;;;;;;;32.47;12.38;;;;;;;13.73;100.00;102048.16;4942366;29;20042;-74
2022/10/12 09:35:45;;;;;;;10.95;2.53;;;;;;;13.88;100.00;102042.72;4944282;29;20023;-73
2022/10/12 09:38:11;;;;;;;13.57;2.10;;;;;;;13.91;100.00;102042.34;4943050;29;20028;-72
2022/10/12 09:40:37;;;;;;;9.90;2.00;;;;;;;13.79;100.00;102024.91;4933741;29;20046;-71
2022/10/12 09:43:03;;;;;;;13.48;2.38;;;;;;;14.02;100.00;102049.13;4916813;29;20043;-69
2022/10/12 09:45:31;;;;;;;12.95;1.98;;;;;;;14.16;100.00;102050.91;4945912;29;20046;-70
2022/10/12 09:48:17;;;;;;;10.10;1.98;;;;;;;14.31;100.00;102061.72;4943987;28;20054;-73
2022/10/12 09:51:01;;;;;;;11.45;1.90;;;;;;;14.37;100.00;102057.38;4944698;29;20030;-70
2022/10/12 09:53:42;;;;;;;11.60;2.08;;;;;;;14.31;100.00;102059.00;4927883;29;20019;-72
2022/10/12 09:56:11;;;;;;;15.77;2.35;;;;;;;14.25;100.00;102038.94;4945291;29;20505;-69
2022/10/12 09:58:48;;;;;;;11.65;1.95;;;;;;;14.37;100.00;102057.38;4948552;29;20486;-68
2022/10/12 10:01:37;;;;;;;12.85;1.95;;;;;;;14.26;100.00;102061.44;4931562;29;20506;-70
2022/10/12 10:04:22;;;;;;;9.32;1.70;;;;;;;14.26;100.00;102056.84;4952531;29;20035;-68
2022/10/12 10:06:48;;;;;;;11.43;1.83;;;;;;;14.40;100.00;102057.81;4951798;28;20347;-69
2022/10/12 10:09:31;;;;;;;11.15;1.70;;;;;;;14.50;100.00;102060.19;4952228;28;20428;-69
2022/10/12 10:12:12;;;;;;;10.57;1.80;;;;;;;14.45;100.00;102049.13;4946242;29;20023;-69
2022/10/12 10:14:40;;;;;;;10.68;2.05;;;;;;;14.47;100.00;102064.16;4931073;29;20031;-70
2022/10/12 10:17:06;;;;;;;9.90;1.77;;;;;;;14.52;100.00;102050.88;4930128;29;20402;-70
2022/10/12 10:19:31;;;;;;;13.00;2.03;;;;;;;14.64;100.00;102053.09;4952114;29;20035;-70
2022/10/12 10:22:04;;;;;;;13.57;1.55;;;;;;;14.84;100.00;102058.66;4935436;29;20043;-68
2022/10/12 10:24:32;;;;;;;9.38;2.03;;;;;;;14.86;100.00;102064.72;4952728;29;20398;-70
2022/10/12 10:27:03;;;;;;;12.52;1.92;;;;;;;14.95;100.00;102045.38;4949855;29;20031;-69
2022/10/12 10:29:40;;;;;;;9.50;1.50;;;;;;;15.15;100.00;102055.53;4926708;29;20126;-69
2022/10/12 10:32:22;;;;;;;17.67;1.88;;;;;;;15.25;100.00;102056.84;4943771;29;20167;-69
2022/10/12 10:34:58;;;;;;;9.70;1.50;;;;;;;15.38;98.88;102052.53;4944684;29;20122;-69
2022/10/12 10:37:24;;;;;;;13.30;1.95;;;;;;;15.25;97.98;102023.47;4929861;29;20027;-69
2022/10/12 10:39:55;;;;;;;11.80;2.00;;;;;;;15.24;97.29;102010.97;4923007;29;20031;-69
2022/10/12 10:42:27;;;;;;;17.08;2.28;;;;;;;15.48;97.08;102042.16;4954474;29;20082;-69
2022/10/12 10:44:59;;;;;;;16.00;2.03;;;;;;;15.58;97.47;102053.47;4937041;29;20435;-69
2022/10/12 10:47:25;;;;;;;12.35;1.73;;;;;;;15.45;95.89;102029.81;4956262;29;20042;-69
2022/10/12 10:49:56;;;;;;;10.52;2.13;;;;;;;15.49;95.27;102049.25;4939032;29;20038;-70
2022/10/12 10:52:34;;;;;;;12.13;2.22;;;;;;;15.55;95.55;102053.03;4956049;28;20602;-70
2022/10/12 10:55:09;;;;;;;11.23;1.90;;;;;;;15.55;96.01;102050.31;4932788;29;20039;-70
2022/10/12 10:57:37;;;;;;;11.13;1.95;;;;;;;15.57;96.03;102048.25;4929005;29;20471;-70
2022/10/12 11:00:06;;;;;;;12.85;2.70;;;;;;;15.53;96.30;102036.97;4949281;28;20039;-69
2022/10/12 11:02:37;;;;;;;12.52;1.92;;;;;;;15.63;96.26;102055.56;4930242;29;20731;-70
2022/10/12 11:05:26;;;;;;;13.45;2.20;;;;;;;15.48;96.39;102045.72;4929599;29;20035;-70
2022/10/12 11:07:57;;;;;;;10.30;1.60;;;;;;;15.41;96.68;102047.56;4946987;29;20143;-71
2022/10/12 11:10:31;;;;;;;11.48;2.10;;;;;;;15.41;96.99;102046.72;4947252;29;20031;-70
2022/10/12 11:13:09;;;;;;;;;;;;;;;15.23;96.75;102041.81;4954900;29;20090;-70
2022/10/12 11:15:45;;;;;;;7.95;1.73;;;;;;;15.21;97.57;102055.56;4955811;29;19937;-70
2022/10/12 11:18:48;;;;;;;13.32;2.30;;;;;;;15.00;96.21;102033.97;4938648;29;20027;-70
2022/10/12 11:21:19;;;;;;;10.02;1.77;;;;;;;14.96;96.54;102027.25;4923051;29;20039;-69
2022/10/12 11:23:52;;;;;;;8.98;2.00;;;;;;;15.03;96.77;102037.13;4955419;29;20490;-70
2022/10/12 11:26:36;;;;;;;11.98;1.80;;;;;;;15.09;96.52;102034.63;4953558;29;20521;-70